sensor_id;sensor_type;location;lat;lon;timestamp;P1;durP1;ratioP1;P2;durP2;ratioP2
18726;SDS011;9492;51.888;5.186;2023-10-13T00:01:34;8.37;;;6.20;;
18726;SDS011;9492;51.888;5.186;2023-10-13T00:04:00;8.67;;;6.20;;
18726;SDS011;9492;51.888;5.186;2023-10-13T00:06:30;8.23;;;6.30;;
18726;SDS011;9492;51.888;5.186;2023-10-13T00:08:56;9.97;;;6.60;;
18726;SDS011;9492;51.888;5.186;2023-10-13T00:11:22;9.07;;;6.53;;
18726;SDS011;9492;51.888;5.186;2023-10-13T00:13:51;8.60;;;6.77;;
18726;SDS011;9492;51.888;5.186;2023-10-13T00:16:19;7.03;;;6.33;;
18726;SDS011;9492;51.888;5.186;2023-10-13T00:18:54;7.73;;;6.93;;
18726;SDS011;9492;51.888;5.186;2023-10-13T00:21:23;9.03;;;7.10;;
18726;SDS011;9492;51.888;5.186;2023-10-13T00:24:00;10.77;;;6.97;;
18726;SDS011;9492;51.888;5.186;2023-10-13T00:26:30;8.43;;;7.17;;
18726;SDS011;9492;51.888;5.186;2023-10-13T00:29:01;7.87;;;6.80;;
18726;SDS011;9492;51.888;5.186;2023-10-13T00:31:30;9.77;;;7.07;;
18726;SDS011;9492;51.888;5.186;2023-10-13T00:34:02;9.90;;;7.63;;
18726;SDS011;9492;51.888;5.186;2023-10-13T00:36:49;9.17;;;6.93;;
18726;SDS011;9492;51.888;5.186;2023-10-13T00:39:34;9.20;;;6.97;;
18726;SDS011;9492;51.888;5.186;2023-10-13T00:42:02;8.40;;;6.47;;
18726;SDS011;9492;51.888;5.186;2023-10-13T00:44:33;7.97;;;6.33;;
18726;SDS011;9492;51.888;5.186;2023-10-13T00:47:13;7.47;;;6.30;;
18726;SDS011;9492;51.888;5.186;2023-10-13T00:49:43;9.17;;;6.63;;
18726;SDS011;9492;51.888;5.186;2023-10-13T00:52:12;9.30;;;6.10;;
18726;SDS011;9492;51.888;5.186;2023-10-13T00:54:40;7.07;;;5.80;;
18726;SDS011;9492;51.888;5.186;2023-10-13T00:57:11;7.03;;;5.97;;
18726;SDS011;9492;51.888;5.186;2023-10-13T00:59:51;8.57;;;5.43;;
18726;SDS011;9492;51.888;5.186;2023-10-13T01:02:18;7.07;;;5.63;;
18726;SDS011;9492;51.888;5.186;2023-10-13T01:05:06;6.83;;;5.40;;
18726;SDS011;9492;51.888;5.186;2023-10-13T01:07:38;7.90;;;5.60;;
18726;SDS011;9492;51.888;5.186;2023-10-13T01:10:04;6.97;;;4.80;;
18726;SDS011;9492;51.888;5.186;2023-10-13T01:12:30;8.50;;;5.00;;
18726;SDS011;9492;51.888;5.186;2023-10-13T01:14:58;6.00;;;5.30;;
18726;SDS011;9492;51.888;5.186;2023-10-13T01:17:33;7.70;;;5.00;;
18726;SDS011;9492;51.888;5.186;2023-10-13T01:19:59;5.67;;;4.13;;
18726;SDS011;9492;51.888;5.186;2023-10-13T01:22:25;6.57;;;4.33;;
18726;SDS011;9492;51.888;5.186;2023-10-13T01:24:53;7.60;;;4.43;;
18726;SDS011;9492;51.888;5.186;2023-10-13T01:27:31;7.50;;;5.27;;
18726;SDS011;9492;51.888;5.186;2023-10-13T01:29:57;6.93;;;4.10;;
18726;SDS011;9492;51.888;5.186;2023-10-13T01:32:33;6.83;;;4.50;;
18726;SDS011;9492;51.888;5.186;2023-10-13T01:35:08;5.23;;;3.77;;
18726;SDS011;9492;51.888;5.186;2023-10-13T01:40:04;6.17;;;4.20;;
18726;SDS011;9492;51.888;5.186;2023-10-13T01:45:02;4.20;;;3.80;;
18726;SDS011;9492;51.888;5.186;2023-10-13T01:47:31;7.10;;;4.30;;
18726;SDS011;9492;51.888;5.186;2023-10-13T01:50:01;7.23;;;3.93;;
18726;SDS011;9492;51.888;5.186;2023-10-13T01:52:40;8.20;;;3.83;;
18726;SDS011;9492;51.888;5.186;2023-10-13T01:55:09;7.03;;;4.17;;
18726;SDS011;9492;51.888;5.186;2023-10-13T02:00:28;5.83;;;3.90;;
18726;SDS011;9492;51.888;5.186;2023-10-13T02:02:56;5.17;;;3.80;;
18726;SDS011;9492;51.888;5.186;2023-10-13T02:05:25;5.50;;;4.50;;
18726;SDS011;9492;51.888;5.186;2023-10-13T02:08:03;5.23;;;3.87;;
18726;SDS011;9492;51.888;5.186;2023-10-13T02:10:29;4.57;;;3.43;;
18726;SDS011;9492;51.888;5.186;2023-10-13T02:12:56;6.90;;;4.00;;
18726;SDS011;9492;51.888;5.186;2023-10-13T02:17:53;6.37;;;4.47;;
18726;SDS011;9492;51.888;5.186;2023-10-13T02:20:20;7.03;;;3.63;;
18726;SDS011;9492;51.888;5.186;2023-10-13T02:22:55;5.77;;;3.23;;
18726;SDS011;9492;51.888;5.186;2023-10-13T02:25:21;6.97;;;4.03;;
18726;SDS011;9492;51.888;5.186;2023-10-13T02:28:17;6.57;;;3.50;;
18726;SDS011;9492;51.888;5.186;2023-10-13T02:30:47;5.37;;;3.40;;
18726;SDS011;9492;51.888;5.186;2023-10-13T02:33:15;5.77;;;3.57;;
18726;SDS011;9492;51.888;5.186;2023-10-13T02:35:47;6.63;;;3.47;;
18726;SDS011;9492;51.888;5.186;2023-10-13T02:41:16;7.63;;;3.60;;
18726;SDS011;9492;51.888;5.186;2023-10-13T02:43:53;5.67;;;3.43;;
18726;SDS011;9492;51.888;5.186;2023-10-13T02:46:20;4.33;;;3.47;;
18726;SDS011;9492;51.888;5.186;2023-10-13T02:49:05;3.77;;;3.33;;
18726;SDS011;9492;51.888;5.186;2023-10-13T02:51:38;6.50;;;4.20;;
18726;SDS011;9492;51.888;5.186;2023-10-13T02:54:13;7.50;;;3.57;;
18726;SDS011;9492;51.888;5.186;2023-10-13T02:56:45;6.53;;;3.57;;
18726;SDS011;9492;51.888;5.186;2023-10-13T02:59:23;10.03;;;3.90;;
18726;SDS011;9492;51.888;5.186;2023-10-13T03:02:07;5.27;;;3.33;;
18726;SDS011;9492;51.888;5.186;2023-10-13T03:04:49;5.70;;;3.50;;
18726;SDS011;9492;51.888;5.186;2023-10-13T03:07:15;7.80;;;4.17;;
18726;SDS011;9492;51.888;5.186;2023-10-13T03:09:49;8.10;;;3.77;;
18726;SDS011;9492;51.888;5.186;2023-10-13T03:12:16;5.97;;;3.57;;
18726;SDS011;9492;51.888;5.186;2023-10-13T03:14:43;6.30;;;3.47;;
18726;SDS011;9492;51.888;5.186;2023-10-13T03:17:23;4.50;;;2.93;;
18726;SDS011;9492;51.888;5.186;2023-10-13T03:19:58;7.13;;;3.23;;
18726;SDS011;9492;51.888;5.186;2023-10-13T03:22:25;6.87;;;3.40;;
18726;SDS011;9492;51.888;5.186;2023-10-13T03:24:58;6.30;;;3.63;;
18726;SDS011;9492;51.888;5.186;2023-10-13T03:27:38;5.93;;;3.50;;
18726;SDS011;9492;51.888;5.186;2023-10-13T03:30:27;7.90;;;3.30;;
18726;SDS011;9492;51.888;5.186;2023-10-13T03:33:04;6.57;;;3.80;;
18726;SDS011;9492;51.888;5.186;2023-10-13T03:35:37;5.53;;;3.57;;
18726;SDS011;9492;51.888;5.186;2023-10-13T03:38:06;6.40;;;3.70;;
18726;SDS011;9492;51.888;5.186;2023-10-13T03:40:52;4.97;;;3.23;;
18726;SDS011;9492;51.888;5.186;2023-10-13T03:43:34;7.07;;;3.90;;
18726;SDS011;9492;51.888;5.186;2023-10-13T03:46:17;7.10;;;3.80;;
18726;SDS011;9492;51.888;5.186;2023-10-13T03:48:47;7.57;;;4.33;;
18726;SDS011;9492;51.888;5.186;2023-10-13T03:53:58;7.07;;;4.13;;
18726;SDS011;9492;51.888;5.186;2023-10-13T03:56:32;7.60;;;4.27;;
18726;SDS011;9492;51.888;5.186;2023-10-13T03:59:04;5.50;;;3.97;;
18726;SDS011;9492;51.888;5.186;2023-10-13T04:01:50;7.23;;;4.57;;
18726;SDS011;9492;51.888;5.186;2023-10-13T04:04:18;11.67;;;4.50;;
18726;SDS011;9492;51.888;5.186;2023-10-13T04:07:04;5.93;;;4.30;;
18726;SDS011;9492;51.888;5.186;2023-10-13T04:09:30;6.53;;;4.57;;
18726;SDS011;9492;51.888;5.186;2023-10-13T04:14:28;5.27;;;3.80;;
18726;SDS011;9492;51.888;5.186;2023-10-13T04:17:13;4.87;;;3.87;;
18726;SDS011;9492;51.888;5.186;2023-10-13T04:19:42;6.50;;;4.67;;
18726;SDS011;9492;51.888;5.186;2023-10-13T04:22:44;5.37;;;3.90;;
18726;SDS011;9492;51.888;5.186;2023-10-13T04:25:16;6.10;;;4.00;;
18726;SDS011;9492;51.888;5.186;2023-10-13T04:28:02;7.70;;;4.73;;
18726;SDS011;9492;51.888;5.186;2023-10-13T04:30:37;5.37;;;4.27;;
18726;SDS011;9492;51.888;5.186;2023-10-13T04:38:49;7.03;;;5.27;;
18726;SDS011;9492;51.888;5.186;2023-10-13T04:41:26;7.30;;;5.40;;
18726;SDS011;9492;51.888;5.186;2023-10-13T04:44:06;8.30;;;6.33;;
18726;SDS011;9492;51.888;5.186;2023-10-13T04:46:52;7.47;;;5.70;;
18726;SDS011;9492;51.888;5.186;2023-10-13T04:49:25;10.83;;;5.70;;
18726;SDS011;9492;51.888;5.186;2023-10-13T04:52:01;7.47;;;6.07;;
18726;SDS011;9492;51.888;5.186;2023-10-13T04:54:33;8.83;;;6.20;;
18726;SDS011;9492;51.888;5.186;2023-10-13T04:57:10;7.93;;;6.80;;
18726;SDS011;9492;51.888;5.186;2023-10-13T04:59:55;10.13;;;7.57;;
18726;SDS011;9492;51.888;5.186;2023-10-13T05:02:43;12.27;;;8.13;;
18726;SDS011;9492;51.888;5.186;2023-10-13T05:05:26;7.37;;;6.57;;
18726;SDS011;9492;51.888;5.186;2023-10-13T05:08:12;9.57;;;7.03;;
18726;SDS011;9492;51.888;5.186;2023-10-13T05:10:56;8.30;;;7.30;;
18726;SDS011;9492;51.888;5.186;2023-10-13T05:13:42;9.33;;;7.10;;
18726;SDS011;9492;51.888;5.186;2023-10-13T05:16:29;7.57;;;5.87;;
18726;SDS011;9492;51.888;5.186;2023-10-13T05:19:13;7.13;;;5.77;;
18726;SDS011;9492;51.888;5.186;2023-10-13T05:21:58;7.60;;;6.00;;
18726;SDS011;9492;51.888;5.186;2023-10-13T05:24:42;6.47;;;5.20;;
18726;SDS011;9492;51.888;5.186;2023-10-13T05:27:27;6.10;;;4.40;;
18726;SDS011;9492;51.888;5.186;2023-10-13T05:30:12;7.63;;;5.37;;
18726;SDS011;9492;51.888;5.186;2023-10-13T05:32:56;7.63;;;4.00;;
18726;SDS011;9492;51.888;5.186;2023-10-13T05:35:43;5.67;;;4.23;;
18726;SDS011;9492;51.888;5.186;2023-10-13T05:38:28;6.63;;;4.40;;
18726;SDS011;9492;51.888;5.186;2023-10-13T05:41:12;6.67;;;3.80;;
18726;SDS011;9492;51.888;5.186;2023-10-13T05:43:57;8.00;;;4.57;;
18726;SDS011;9492;51.888;5.186;2023-10-13T05:46:42;5.37;;;4.23;;
18726;SDS011;9492;51.888;5.186;2023-10-13T05:49:14;7.47;;;4.27;;
18726;SDS011;9492;51.888;5.186;2023-10-13T05:52:00;5.07;;;3.80;;
18726;SDS011;9492;51.888;5.186;2023-10-13T05:54:44;4.97;;;3.90;;
18726;SDS011;9492;51.888;5.186;2023-10-13T05:57:29;6.27;;;3.77;;
18726;SDS011;9492;51.888;5.186;2023-10-13T06:00:10;5.80;;;3.70;;
18726;SDS011;9492;51.888;5.186;2023-10-13T06:02:55;4.67;;;3.70;;
18726;SDS011;9492;51.888;5.186;2023-10-13T06:05:42;6.70;;;4.30;;
18726;SDS011;9492;51.888;5.186;2023-10-13T06:08:27;6.13;;;4.70;;
18726;SDS011;9492;51.888;5.186;2023-10-13T06:11:11;5.63;;;4.40;;
18726;SDS011;9492;51.888;5.186;2023-10-13T06:13:56;6.40;;;4.67;;
18726;SDS011;9492;51.888;5.186;2023-10-13T06:16:41;6.53;;;4.80;;
18726;SDS011;9492;51.888;5.186;2023-10-13T06:19:25;6.27;;;4.60;;
18726;SDS011;9492;51.888;5.186;2023-10-13T06:22:17;6.63;;;4.80;;
18726;SDS011;9492;51.888;5.186;2023-10-13T06:25:02;5.87;;;4.60;;
18726;SDS011;9492;51.888;5.186;2023-10-13T06:27:47;8.10;;;4.97;;
18726;SDS011;9492;51.888;5.186;2023-10-13T06:30:31;9.77;;;4.80;;
18726;SDS011;9492;51.888;5.186;2023-10-13T06:32:58;6.00;;;4.37;;
18726;SDS011;9492;51.888;5.186;2023-10-13T06:35:27;5.67;;;4.60;;
18726;SDS011;9492;51.888;5.186;2023-10-13T06:37:54;6.33;;;4.53;;
18726;SDS011;9492;51.888;5.186;2023-10-13T06:40:25;6.63;;;3.87;;
18726;SDS011;9492;51.888;5.186;2023-10-13T06:42:51;7.17;;;4.70;;
18726;SDS011;9492;51.888;5.186;2023-10-13T06:45:18;5.40;;;4.90;;
18726;SDS011;9492;51.888;5.186;2023-10-13T06:47:46;5.97;;;4.20;;
18726;SDS011;9492;51.888;5.186;2023-10-13T06:50:13;7.87;;;4.90;;
18726;SDS011;9492;51.888;5.186;2023-10-13T06:52:47;6.33;;;4.63;;
18726;SDS011;9492;51.888;5.186;2023-10-13T06:55:14;6.87;;;4.63;;
18726;SDS011;9492;51.888;5.186;2023-10-13T06:57:56;7.97;;;4.93;;
18726;SDS011;9492;51.888;5.186;2023-10-13T07:00:25;9.80;;;4.57;;
18726;SDS011;9492;51.888;5.186;2023-10-13T07:02:55;6.13;;;4.60;;
18726;SDS011;9492;51.888;5.186;2023-10-13T07:05:37;10.07;;;5.80;;
18726;SDS011;9492;51.888;5.186;2023-10-13T07:08:07;10.40;;;4.90;;
18726;SDS011;9492;51.888;5.186;2023-10-13T07:10:34;10.90;;;5.10;;
18726;SDS011;9492;51.888;5.186;2023-10-13T07:13:19;12.03;;;5.30;;
18726;SDS011;9492;51.888;5.186;2023-10-13T07:15:45;9.90;;;5.00;;
18726;SDS011;9492;51.888;5.186;2023-10-13T07:18:13;7.30;;;4.53;;
18726;SDS011;9492;51.888;5.186;2023-10-13T07:20:40;7.83;;;4.70;;
18726;SDS011;9492;51.888;5.186;2023-10-13T07:23:10;10.43;;;5.20;;
18726;SDS011;9492;51.888;5.186;2023-10-13T07:25:42;14.80;;;5.63;;
18726;SDS011;9492;51.888;5.186;2023-10-13T07:28:09;9.43;;;4.70;;
18726;SDS011;9492;51.888;5.186;2023-10-13T07:30:36;10.70;;;4.40;;
18726;SDS011;9492;51.888;5.186;2023-10-13T07:33:13;9.17;;;4.80;;
18726;SDS011;9492;51.888;5.186;2023-10-13T07:35:39;8.10;;;4.57;;
18726;SDS011;9492;51.888;5.186;2023-10-13T07:38:06;7.43;;;4.57;;
18726;SDS011;9492;51.888;5.186;2023-10-13T07:40:33;8.80;;;4.07;;
18726;SDS011;9492;51.888;5.186;2023-10-13T07:43:04;11.63;;;4.70;;
18726;SDS011;9492;51.888;5.186;2023-10-13T07:45:35;9.53;;;4.67;;
18726;SDS011;9492;51.888;5.186;2023-10-13T07:48:11;15.03;;;4.40;;
18726;SDS011;9492;51.888;5.186;2023-10-13T07:50:42;11.43;;;4.13;;
18726;SDS011;9492;51.888;5.186;2023-10-13T07:53:10;7.97;;;4.23;;
18726;SDS011;9492;51.888;5.186;2023-10-13T07:55:49;10.70;;;4.47;;
18726;SDS011;9492;51.888;5.186;2023-10-13T07:58:21;9.17;;;4.30;;
18726;SDS011;9492;51.888;5.186;2023-10-13T08:00:51;8.60;;;4.57;;
18726;SDS011;9492;51.888;5.186;2023-10-13T08:03:34;9.43;;;4.17;;
18726;SDS011;9492;51.888;5.186;2023-10-13T08:06:08;8.27;;;4.10;;
18726;SDS011;9492;51.888;5.186;2023-10-13T08:08:36;8.17;;;4.30;;
18726;SDS011;9492;51.888;5.186;2023-10-13T08:11:03;8.57;;;4.03;;
18726;SDS011;9492;51.888;5.186;2023-10-13T08:13:36;11.20;;;4.50;;
18726;SDS011;9492;51.888;5.186;2023-10-13T08:16:02;9.07;;;4.30;;
18726;SDS011;9492;51.888;5.186;2023-10-13T08:18:36;11.57;;;4.80;;
18726;SDS011;9492;51.888;5.186;2023-10-13T08:21:06;10.60;;;4.13;;
18726;SDS011;9492;51.888;5.186;2023-10-13T08:23:40;10.00;;;4.57;;
18726;SDS011;9492;51.888;5.186;2023-10-13T08:26:19;10.37;;;4.57;;
18726;SDS011;9492;51.888;5.186;2023-10-13T08:29:00;13.97;;;4.53;;
18726;SDS011;9492;51.888;5.186;2023-10-13T08:31:45;7.77;;;4.10;;
18726;SDS011;9492;51.888;5.186;2023-10-13T08:34:35;9.10;;;4.80;;
18726;SDS011;9492;51.888;5.186;2023-10-13T08:37:25;11.27;;;4.70;;
18726;SDS011;9492;51.888;5.186;2023-10-13T08:39:52;6.67;;;3.77;;
18726;SDS011;9492;51.888;5.186;2023-10-13T08:42:28;9.47;;;4.20;;
18726;SDS011;9492;51.888;5.186;2023-10-13T08:45:15;11.07;;;4.57;;
18726;SDS011;9492;51.888;5.186;2023-10-13T08:47:57;11.83;;;4.60;;
18726;SDS011;9492;51.888;5.186;2023-10-13T08:50:36;8.87;;;4.57;;
18726;SDS011;9492;51.888;5.186;2023-10-13T08:55:56;11.27;;;5.00;;
18726;SDS011;9492;51.888;5.186;2023-10-13T08:58:48;14.63;;;5.20;;
18726;SDS011;9492;51.888;5.186;2023-10-13T09:03:58;9.40;;;3.97;;
18726;SDS011;9492;51.888;5.186;2023-10-13T09:06:49;14.87;;;5.00;;
18726;SDS011;9492;51.888;5.186;2023-10-13T09:09:24;8.70;;;4.73;;
18726;SDS011;9492;51.888;5.186;2023-10-13T09:12:00;13.63;;;5.43;;
18726;SDS011;9492;51.888;5.186;2023-10-13T09:14:37;9.77;;;4.50;;
18726;SDS011;9492;51.888;5.186;2023-10-13T09:17:07;10.10;;;5.23;;
18726;SDS011;9492;51.888;5.186;2023-10-13T09:19:56;15.00;;;5.27;;
18726;SDS011;9492;51.888;5.186;2023-10-13T09:22:26;13.27;;;5.17;;
18726;SDS011;9492;51.888;5.186;2023-10-13T09:24:56;17.17;;;5.53;;
18726;SDS011;9492;51.888;5.186;2023-10-13T09:27:24;12.83;;;5.07;;
18726;SDS011;9492;51.888;5.186;2023-10-13T09:30:02;10.63;;;4.67;;
18726;SDS011;9492;51.888;5.186;2023-10-13T09:33:01;7.97;;;4.50;;
18726;SDS011;9492;51.888;5.186;2023-10-13T09:35:30;16.97;;;5.57;;
18726;SDS011;9492;51.888;5.186;2023-10-13T09:38:02;11.60;;;4.37;;
18726;SDS011;9492;51.888;5.186;2023-10-13T09:40:29;10.97;;;4.67;;
18726;SDS011;9492;51.888;5.186;2023-10-13T09:43:03;9.50;;;4.90;;
18726;SDS011;9492;51.888;5.186;2023-10-13T09:45:34;10.13;;;4.73;;
18726;SDS011;9492;51.888;5.186;2023-10-13T09:48:11;7.67;;;5.17;;
18726;SDS011;9492;51.888;5.186;2023-10-13T09:50:54;12.47;;;5.50;;
18726;SDS011;9492;51.888;5.186;2023-10-13T09:53:22;11.60;;;5.20;;
18726;SDS011;9492;51.888;5.186;2023-10-13T09:56:35;12.63;;;5.67;;
18726;SDS011;9492;51.888;5.186;2023-10-13T09:58:51;10.60;;;4.83;;
18726;SDS011;9492;51.888;5.186;2023-10-13T10:01:22;13.63;;;5.00;;
18726;SDS011;9492;51.888;5.186;2023-10-13T10:04:05;11.60;;;5.03;;
18726;SDS011;9492;51.888;5.186;2023-10-13T10:06:36;11.73;;;5.00;;
18726;SDS011;9492;51.888;5.186;2023-10-13T10:09:09;11.77;;;4.57;;
18726;SDS011;9492;51.888;5.186;2023-10-13T10:17:12;9.50;;;4.87;;
18726;SDS011;9492;51.888;5.186;2023-10-13T10:19:52;7.60;;;4.87;;
18726;SDS011;9492;51.888;5.186;2023-10-13T10:22:25;11.20;;;5.60;;
18726;SDS011;9492;51.888;5.186;2023-10-13T10:25:04;12.87;;;5.40;;
18726;SDS011;9492;51.888;5.186;2023-10-13T10:28:00;13.07;;;4.97;;
18726;SDS011;9492;51.888;5.186;2023-10-13T10:30:30;11.20;;;5.47;;
18726;SDS011;9492;51.888;5.186;2023-10-13T10:32:59;15.47;;;6.23;;
18726;SDS011;9492;51.888;5.186;2023-10-13T10:35:27;9.03;;;5.17;;
18726;SDS011;9492;51.888;5.186;2023-10-13T10:38:07;11.63;;;5.07;;
18726;SDS011;9492;51.888;5.186;2023-10-13T10:43:22;10.63;;;5.30;;
18726;SDS011;9492;51.888;5.186;2023-10-13T10:45:53;13.70;;;5.67;;
18726;SDS011;9492;51.888;5.186;2023-10-13T10:48:24;10.33;;;5.13;;
18726;SDS011;9492;51.888;5.186;2023-10-13T10:50:56;12.83;;;5.77;;
18726;SDS011;9492;51.888;5.186;2023-10-13T10:53:24;9.07;;;4.73;;
18726;SDS011;9492;51.888;5.186;2023-10-13T10:56:14;8.60;;;4.97;;
18726;SDS011;9492;51.888;5.186;2023-10-13T10:58:57;8.33;;;4.93;;
18726;SDS011;9492;51.888;5.186;2023-10-13T11:01:25;16.30;;;5.17;;
18726;SDS011;9492;51.888;5.186;2023-10-13T11:04:03;11.27;;;6.00;;
18726;SDS011;9492;51.888;5.186;2023-10-13T11:06:54;15.67;;;5.60;;
18726;SDS011;9492;51.888;5.186;2023-10-13T11:09:24;10.63;;;5.87;;
18726;SDS011;9492;51.888;5.186;2023-10-13T11:11:50;11.87;;;5.10;;
18726;SDS011;9492;51.888;5.186;2023-10-13T11:14:28;9.03;;;5.67;;
18726;SDS011;9492;51.888;5.186;2023-10-13T11:16:55;13.97;;;5.97;;
18726;SDS011;9492;51.888;5.186;2023-10-13T11:19:39;11.53;;;5.50;;
18726;SDS011;9492;51.888;5.186;2023-10-13T11:22:18;13.30;;;5.60;;
18726;SDS011;9492;51.888;5.186;2023-10-13T11:25:04;13.37;;;5.20;;
18726;SDS011;9492;51.888;5.186;2023-10-13T11:27:40;16.60;;;5.60;;
18726;SDS011;9492;51.888;5.186;2023-10-13T11:30:21;11.90;;;5.67;;
18726;SDS011;9492;51.888;5.186;2023-10-13T11:33:00;11.93;;;5.80;;
18726;SDS011;9492;51.888;5.186;2023-10-13T11:35:30;11.63;;;5.70;;
18726;SDS011;9492;51.888;5.186;2023-10-13T11:38:17;9.70;;;5.70;;
18726;SDS011;9492;51.888;5.186;2023-10-13T11:40:51;16.00;;;5.87;;
18726;SDS011;9492;51.888;5.186;2023-10-13T11:43:29;13.77;;;6.50;;
18726;SDS011;9492;51.888;5.186;2023-10-13T11:46:00;11.63;;;6.57;;
18726;SDS011;9492;51.888;5.186;2023-10-13T11:48:35;14.70;;;5.83;;
18726;SDS011;9492;51.888;5.186;2023-10-13T11:51:05;18.20;;;7.00;;
18726;SDS011;9492;51.888;5.186;2023-10-13T11:56:00;15.67;;;6.07;;
18726;SDS011;9492;51.888;5.186;2023-10-13T11:58:26;15.63;;;5.97;;
18726;SDS011;9492;51.888;5.186;2023-10-13T12:00:55;14.47;;;6.10;;
18726;SDS011;9492;51.888;5.186;2023-10-13T12:03:40;12.70;;;6.20;;
18726;SDS011;9492;51.888;5.186;2023-10-13T12:06:24;11.83;;;5.60;;
18726;SDS011;9492;51.888;5.186;2023-10-13T12:08:59;17.23;;;6.67;;
18726;SDS011;9492;51.888;5.186;2023-10-13T12:11:40;13.77;;;6.20;;
18726;SDS011;9492;51.888;5.186;2023-10-13T12:14:10;18.20;;;7.23;;
18726;SDS011;9492;51.888;5.186;2023-10-13T12:16:56;8.87;;;5.80;;
18726;SDS011;9492;51.888;5.186;2023-10-13T12:19:29;14.33;;;6.20;;
18726;SDS011;9492;51.888;5.186;2023-10-13T12:21:56;16.63;;;6.73;;
18726;SDS011;9492;51.888;5.186;2023-10-13T12:24:28;13.90;;;6.23;;
18726;SDS011;9492;51.888;5.186;2023-10-13T12:27:01;11.00;;;5.77;;
18726;SDS011;9492;51.888;5.186;2023-10-13T12:29:27;11.63;;;6.10;;
18726;SDS011;9492;51.888;5.186;2023-10-13T12:31:57;12.80;;;5.63;;
18726;SDS011;9492;51.888;5.186;2023-10-13T12:34:39;14.77;;;6.40;;
18726;SDS011;9492;51.888;5.186;2023-10-13T12:37:28;13.60;;;6.83;;
18726;SDS011;9492;51.888;5.186;2023-10-13T12:40:11;13.50;;;5.63;;
18726;SDS011;9492;51.888;5.186;2023-10-13T12:42:56;16.70;;;6.23;;
18726;SDS011;9492;51.888;5.186;2023-10-13T12:45:50;14.60;;;6.00;;
18726;SDS011;9492;51.888;5.186;2023-10-13T12:48:35;11.43;;;6.07;;
18726;SDS011;9492;51.888;5.186;2023-10-13T12:51:21;13.53;;;5.87;;
18726;SDS011;9492;51.888;5.186;2023-10-13T12:53:56;13.50;;;6.50;;
18726;SDS011;9492;51.888;5.186;2023-10-13T12:56:52;14.63;;;5.53;;
18726;SDS011;9492;51.888;5.186;2023-10-13T12:59:21;15.93;;;6.37;;
18726;SDS011;9492;51.888;5.186;2023-10-13T13:01:51;16.50;;;6.43;;
18726;SDS011;9492;51.888;5.186;2023-10-13T13:04:18;13.63;;;6.47;;
18726;SDS011;9492;51.888;5.186;2023-10-13T13:06:48;12.67;;;5.43;;
18726;SDS011;9492;51.888;5.186;2023-10-13T13:09:15;13.40;;;6.77;;
18726;SDS011;9492;51.888;5.186;2023-10-13T13:11:49;12.83;;;5.93;;
18726;SDS011;9492;51.888;5.186;2023-10-13T13:14:15;13.97;;;6.27;;
18726;SDS011;9492;51.888;5.186;2023-10-13T13:16:41;13.17;;;7.13;;
18726;SDS011;9492;51.888;5.186;2023-10-13T13:19:07;12.90;;;6.70;;
18726;SDS011;9492;51.888;5.186;2023-10-13T13:21:36;18.20;;;7.17;;
18726;SDS011;9492;51.888;5.186;2023-10-13T13:24:03;13.00;;;7.03;;
18726;SDS011;9492;51.888;5.186;2023-10-13T13:26:30;15.37;;;6.70;;
18726;SDS011;9492;51.888;5.186;2023-10-13T13:28:56;15.20;;;6.07;;
18726;SDS011;9492;51.888;5.186;2023-10-13T13:31:22;11.80;;;6.37;;
18726;SDS011;9492;51.888;5.186;2023-10-13T13:33:54;9.80;;;6.10;;
18726;SDS011;9492;51.888;5.186;2023-10-13T13:36:21;13.10;;;6.33;;
18726;SDS011;9492;51.888;5.186;2023-10-13T13:38:47;14.57;;;6.30;;
18726;SDS011;9492;51.888;5.186;2023-10-13T13:41:19;17.07;;;6.67;;
18726;SDS011;9492;51.888;5.186;2023-10-13T13:43:46;15.13;;;5.73;;
18726;SDS011;9492;51.888;5.186;2023-10-13T13:46:20;15.07;;;6.30;;
18726;SDS011;9492;51.888;5.186;2023-10-13T13:48:52;12.63;;;6.57;;
18726;SDS011;9492;51.888;5.186;2023-10-13T13:51:31;11.57;;;6.57;;
18726;SDS011;9492;51.888;5.186;2023-10-13T13:53:59;13.80;;;5.90;;
18726;SDS011;9492;51.888;5.186;2023-10-13T13:56:25;11.63;;;6.00;;
18726;SDS011;9492;51.888;5.186;2023-10-13T13:58:53;14.97;;;6.47;;
18726;SDS011;9492;51.888;5.186;2023-10-13T14:01:32;14.37;;;6.50;;
18726;SDS011;9492;51.888;5.186;2023-10-13T14:04:00;11.30;;;5.93;;
18726;SDS011;9492;51.888;5.186;2023-10-13T14:06:31;11.17;;;5.73;;
18726;SDS011;9492;51.888;5.186;2023-10-13T14:08:58;11.93;;;6.30;;
18726;SDS011;9492;51.888;5.186;2023-10-13T14:11:27;13.60;;;5.97;;
18726;SDS011;9492;51.888;5.186;2023-10-13T14:14:06;13.73;;;5.97;;
18726;SDS011;9492;51.888;5.186;2023-10-13T14:16:42;17.30;;;6.07;;
18726;SDS011;9492;51.888;5.186;2023-10-13T14:19:12;14.77;;;5.50;;
18726;SDS011;9492;51.888;5.186;2023-10-13T14:21:44;16.17;;;5.80;;
18726;SDS011;9492;51.888;5.186;2023-10-13T14:24:18;14.00;;;6.27;;
18726;SDS011;9492;51.888;5.186;2023-10-13T14:26:56;11.40;;;5.10;;
18726;SDS011;9492;51.888;5.186;2023-10-13T14:29:43;9.73;;;4.77;;
18726;SDS011;9492;51.888;5.186;2023-10-13T14:32:09;11.97;;;5.67;;
18726;SDS011;9492;51.888;5.186;2023-10-13T14:34:38;13.40;;;6.97;;
18726;SDS011;9492;51.888;5.186;2023-10-13T14:37:04;10.27;;;5.60;;
18726;SDS011;9492;51.888;5.186;2023-10-13T14:39:31;13.23;;;5.93;;
18726;SDS011;9492;51.888;5.186;2023-10-13T14:42:00;9.90;;;5.63;;
18726;SDS011;9492;51.888;5.186;2023-10-13T14:44:26;12.47;;;5.93;;
18726;SDS011;9492;51.888;5.186;2023-10-13T14:46:53;13.80;;;6.10;;
18726;SDS011;9492;51.888;5.186;2023-10-13T14:49:21;10.83;;;5.37;;
18726;SDS011;9492;51.888;5.186;2023-10-13T14:51:47;12.57;;;5.57;;
18726;SDS011;9492;51.888;5.186;2023-10-13T14:54:15;14.67;;;6.50;;
18726;SDS011;9492;51.888;5.186;2023-10-13T14:56:45;12.63;;;5.37;;
18726;SDS011;9492;51.888;5.186;2023-10-13T14:59:11;11.40;;;5.07;;
18726;SDS011;9492;51.888;5.186;2023-10-13T15:01:42;12.00;;;5.97;;
18726;SDS011;9492;51.888;5.186;2023-10-13T15:04:08;14.47;;;5.43;;
18726;SDS011;9492;51.888;5.186;2023-10-13T15:06:34;11.43;;;5.63;;
18726;SDS011;9492;51.888;5.186;2023-10-13T15:09:00;13.33;;;5.67;;
18726;SDS011;9492;51.888;5.186;2023-10-13T15:11:28;9.00;;;5.60;;
18726;SDS011;9492;51.888;5.186;2023-10-13T15:14:05;9.50;;;6.07;;
18726;SDS011;9492;51.888;5.186;2023-10-13T15:16:34;10.57;;;5.60;;
18726;SDS011;9492;51.888;5.186;2023-10-13T15:19:00;10.27;;;5.90;;
18726;SDS011;9492;51.888;5.186;2023-10-13T15:21:28;11.47;;;5.63;;
18726;SDS011;9492;51.888;5.186;2023-10-13T15:24:01;11.83;;;5.37;;
18726;SDS011;9492;51.888;5.186;2023-10-13T15:26:41;9.23;;;4.83;;
18726;SDS011;9492;51.888;5.186;2023-10-13T15:29:10;12.20;;;5.27;;
18726;SDS011;9492;51.888;5.186;2023-10-13T15:31:41;11.60;;;5.20;;
18726;SDS011;9492;51.888;5.186;2023-10-13T15:34:13;11.30;;;4.90;;
18726;SDS011;9492;51.888;5.186;2023-10-13T15:36:40;16.50;;;5.03;;
18726;SDS011;9492;51.888;5.186;2023-10-13T15:39:07;7.90;;;4.73;;
18726;SDS011;9492;51.888;5.186;2023-10-13T15:41:35;9.37;;;5.00;;
18726;SDS011;9492;51.888;5.186;2023-10-13T15:44:03;11.00;;;5.40;;
18726;SDS011;9492;51.888;5.186;2023-10-13T15:46:31;10.70;;;5.00;;
18726;SDS011;9492;51.888;5.186;2023-10-13T15:49:00;11.37;;;4.70;;
18726;SDS011;9492;51.888;5.186;2023-10-13T15:51:28;11.87;;;5.60;;
18726;SDS011;9492;51.888;5.186;2023-10-13T15:53:55;13.53;;;5.00;;
18726;SDS011;9492;51.888;5.186;2023-10-13T15:56:24;11.50;;;5.07;;
18726;SDS011;9492;51.888;5.186;2023-10-13T15:58:51;7.83;;;5.33;;
18726;SDS011;9492;51.888;5.186;2023-10-13T16:01:16;12.07;;;5.53;;
18726;SDS011;9492;51.888;5.186;2023-10-13T16:03:48;8.43;;;4.70;;
18726;SDS011;9492;51.888;5.186;2023-10-13T16:06:17;8.90;;;4.73;;
18726;SDS011;9492;51.888;5.186;2023-10-13T16:08:44;10.17;;;4.97;;
18726;SDS011;9492;51.888;5.186;2023-10-13T16:11:11;8.00;;;5.17;;
18726;SDS011;9492;51.888;5.186;2023-10-13T16:13:48;12.10;;;5.33;;
18726;SDS011;9492;51.888;5.186;2023-10-13T16:16:17;12.47;;;5.67;;
18726;SDS011;9492;51.888;5.186;2023-10-13T16:18:44;11.53;;;5.07;;